Time;durP1;ratioP1;P1;durP2;ratioP2;P2;SDS_P1;SDS_P2;PMS_P1;PMS_P2;Temp;Humidity;BMP_temperature;BMP_pressure;BME280_temperature;BME280_humidity;BME280_pressure;Samples;Min_cycle;Max_cycle;Signal;HPM_P1;HPM_P2
2023/03/30 00:05:22;;;;;;;15.33;8.37;;;7.00;98.20;;;;;;10411829;28;20235;-76
2023/03/30 00:10:44;;;;;;;17.07;8.73;;;7.00;98.40;;;;;;10399902;28;20538;-76
2023/03/30 00:16:08;;;;;;;19.37;8.67;;;7.00;98.50;;;;;;10430687;28;20516;-75
2023/03/30 00:21:30;;;;;;;19.03;8.80;;;7.00;99.20;;;;;;10446123;28;20243;-75
2023/03/30 00:26:51;;;;;;;15.63;8.27;;;6.90;99.60;;;;;;10425132;28;20198;-75
2023/03/30 00:32:12;;;;;;;14.27;7.47;;;7.00;99.70;;;;;;10400108;28;20210;-75
2023/03/30 00:37:36;;;;;;;13.60;7.00;;;6.90;99.80;;;;;;10429514;28;20204;-75
2023/03/30 00:43:02;;;;;;;15.80;9.03;;;6.90;99.90;;;;;;10440454;28;20237;-74
2023/03/30 00:48:26;;;;;;;16.83;8.43;;;6.90;99.90;;;;;;10431017;28;20204;-74
2023/03/30 00:53:51;;;;;;;14.90;8.10;;;6.80;99.90;;;;;;10437825;28;20207;-76
2023/03/30 00:59:13;;;;;;;12.70;7.13;;;6.80;99.90;;;;;;10438975;28;20203;-77
2023/03/30 01:04:36;;;;;;;15.00;7.63;;;6.80;99.90;;;;;;10439910;28;20232;-75
2023/03/30 01:09:57;;;;;;;16.67;8.33;;;6.80;99.90;;;;;;10480934;28;20185;-74
2023/03/30 01:15:20;;;;;;;17.53;9.53;;;6.80;99.90;;;;;;10441173;28;20205;-75
2023/03/30 01:21:22;;;;;;;16.63;8.20;;;6.80;99.90;;;;;;10432229;28;20204;-76
2023/03/30 01:26:49;;;;;;;15.73;8.60;;;6.80;99.90;;;;;;10435258;28;20232;-75
2023/03/30 01:32:40;;;;;;;12.70;7.37;;;6.70;99.90;;;;;;10449183;28;20562;-77
2023/03/30 01:38:27;;;;;;;14.40;8.07;;;6.70;99.90;;;;;;10487400;28;20208;-77
2023/03/30 01:44:12;;;;;;;14.57;7.73;;;6.70;99.90;;;;;;10312326;28;20232;-78
2023/03/30 01:49:39;;;;;;;17.13;8.13;;;6.80;99.90;;;;;;10282305;28;20221;-78
2023/03/30 01:55:15;;;;;;;17.50;8.53;;;6.70;99.90;;;;;;10321629;28;20490;-78
2023/03/30 02:00:39;;;;;;;18.00;10.60;;;6.70;99.90;;;;;;10320398;28;20216;-75
2023/03/30 02:06:17;;;;;;;16.83;9.53;;;6.70;99.90;;;;;;10298262;28;20241;-76
2023/03/30 02:11:41;;;;;;;10.43;7.47;;;6.60;99.90;;;;;;10290989;28;20241;-76
2023/03/30 02:17:12;;;;;;;10.63;7.50;;;6.60;99.90;;;;;;10306416;28;20236;-75
2023/03/30 02:22:33;;;;;;;11.03;6.73;;;6.60;99.90;;;;;;10397592;28;20221;-75
2023/03/30 02:27:55;;;;;;;11.27;7.00;;;6.50;99.90;;;;;;10436742;28;20189;-79
2023/03/30 02:33:28;;;;;;;11.07;7.20;;;6.50;99.90;;;;;;10446641;28;20260;-79
2023/03/30 02:39:06;;;;;;;12.33;8.60;;;6.50;99.90;;;;;;10438727;28;20441;-76
2023/03/30 02:44:43;;;;;;;13.47;7.60;;;6.50;99.90;;;;;;10448637;28;20244;-77
2023/03/30 02:50:17;;;;;;;16.40;7.20;;;6.40;99.90;;;;;;10440620;28;20198;-77
2023/03/30 02:56:22;;;;;;;12.83;7.33;;;6.30;99.90;;;;;;10429321;28;20251;-75
2023/03/30 03:01:57;;;;;;;9.97;6.87;;;6.30;99.90;;;;;;10500949;28;20306;-76
2023/03/30 03:07:20;;;;;;;11.27;6.87;;;6.30;99.90;;;;;;10480708;28;20239;-76
2023/03/30 03:12:43;;;;;;;10.97;6.53;;;6.20;99.90;;;;;;10441221;28;20276;-78
2023/03/30 03:18:06;;;;;;;10.93;7.60;;;6.20;99.90;;;;;;10467266;28;20453;-77
2023/03/30 03:23:28;;;;;;;12.60;7.93;;;6.20;99.90;;;;;;10466077;28;20484;-80
2023/03/30 03:28:50;;;;;;;12.07;8.80;;;6.10;99.90;;;;;;10495408;28;20283;-80
2023/03/30 03:34:11;;;;;;;14.87;8.33;;;6.20;99.90;;;;;;10424135;28;20216;-78
2023/03/30 03:39:59;;;;;;;10.70;7.17;;;6.10;99.90;;;;;;10441775;28;20254;-78
2023/03/30 03:45:21;;;;;;;10.90;7.00;;;6.10;99.90;;;;;;10476924;28;20441;-77
2023/03/30 03:50:54;;;;;;;10.63;7.50;;;6.10;99.90;;;;;;10454863;28;20529;-77
2023/03/30 03:56:16;;;;;;;15.17;10.07;;;6.10;99.90;;;;;;10417257;28;20371;-80
2023/03/30 04:01:37;;;;;;;21.00;12.80;;;6.10;99.90;;;;;;10400767;28;20225;-79
2023/03/30 04:07:01;;;;;;;39.33;20.40;;;6.10;99.90;;;;;;10385924;28;20453;-76
2023/03/30 04:12:22;;;;;;;60.77;29.03;;;6.20;99.90;;;;;;10420820;28;20287;-78
2023/03/30 04:17:59;;;;;;;39.13;20.40;;;6.10;99.90;;;;;;10431468;28;20197;-77
2023/03/30 04:23:44;;;;;;;23.63;12.47;;;6.10;99.90;;;;;;10440008;28;20292;-79
2023/03/30 04:29:14;;;;;;;37.23;20.27;;;6.10;99.90;;;;;;10468290;28;20204;-79
2023/03/30 04:35:04;;;;;;;36.30;18.17;;;6.10;99.90;;;;;;10465189;28;20204;-80
2023/03/30 04:40:25;;;;;;;23.53;13.83;;;6.20;99.90;;;;;;10437575;28;20268;-79
2023/03/30 04:46:07;;;;;;;29.17;16.53;;;6.10;99.90;;;;;;10483358;28;20472;-79
2023/03/30 04:51:54;;;;;;;176.33;89.33;;;6.20;99.90;;;;;;10422366;28;20229;-77
2023/03/30 04:57:45;;;;;;;236.23;130.87;;;6.10;99.90;;;;;;10455079;28;20510;-78
2023/03/30 05:03:32;;;;;;;181.50;98.80;;;6.10;99.90;;;;;;10487634;28;20216;-78
2023/03/30 05:09:10;;;;;;;113.07;62.00;;;6.20;99.90;;;;;;10472893;28;20210;-79
2023/03/30 05:14:48;;;;;;;82.53;46.03;;;6.20;99.90;;;;;;10459857;28;20197;-77
2023/03/30 05:20:28;;;;;;;136.83;52.20;;;6.20;99.90;;;;;;10398309;28;20196;-77
2023/03/30 05:26:22;;;;;;;98.13;41.70;;;6.20;99.90;;;;;;10394852;28;20222;-81
2023/03/30 05:32:08;;;;;;;50.87;25.90;;;6.20;99.90;;;;;;10303419;28;20377;-81
2023/03/30 05:38:08;;;;;;;38.43;20.53;;;6.30;99.90;;;;;;10319598;28;20200;-81
2023/03/30 05:43:35;;;;;;;23.77;13.37;;;6.40;99.90;;;;;;10295926;28;20328;-81
2023/03/30 05:49:10;;;;;;;23.07;12.20;;;6.40;99.90;;;;;;10284329;28;20599;-77
2023/03/30 05:54:56;;;;;;;18.53;11.93;;;6.50;99.90;;;;;;10311747;28;20604;-81
2023/03/30 06:00:36;;;;;;;32.37;15.30;;;6.60;99.90;;;;;;10311839;28;20211;-78
2023/03/30 06:06:11;;;;;;;29.80;15.57;;;6.80;99.90;;;;;;10359241;28;20241;-77
2023/03/30 06:11:33;;;;;;;25.97;14.27;;;7.00;99.90;;;;;;10462740;28;20224;-76
2023/03/30 06:17:16;;;;;;;25.27;14.57;;;7.10;99.90;;;;;;10432576;28;20209;-77
2023/03/30 06:22:40;;;;;;;20.93;12.70;;;7.10;99.90;;;;;;10462343;28;20483;-77
2023/03/30 06:28:05;;;;;;;23.40;14.30;;;7.20;99.90;;;;;;10463188;28;20222;-77
2023/03/30 06:33:29;;;;;;;23.40;14.23;;;7.20;99.90;;;;;;10470798;28;20202;-76
2023/03/30 06:38:53;;;;;;;25.37;13.97;;;7.20;99.90;;;;;;10414589;28;20221;-77
2023/03/30 06:44:15;;;;;;;20.47;14.27;;;7.40;99.90;;;;;;10378789;28;20245;-78
2023/03/30 06:49:39;;;;;;;24.27;15.37;;;7.40;99.90;;;;;;10401857;28;20222;-80
2023/03/30 06:55:20;;;;;;;26.77;14.93;;;7.40;99.90;;;;;;10422382;28;20268;-76
2023/03/30 07:00:41;;;;;;;35.43;21.87;;;7.40;99.90;;;;;;10420384;28;20273;-78
2023/03/30 07:06:29;;;;;;;25.37;16.27;;;7.40;99.90;;;;;;10441146;28;20241;-76
2023/03/30 07:11:50;;;;;;;25.83;15.53;;;7.50;99.90;;;;;;10472706;28;20594;-78
2023/03/30 07:17:12;;;;;;;24.53;15.67;;;7.60;99.90;;;;;;10418859;28;20216;-79
2023/03/30 07:22:34;;;;;;;21.07;12.57;;;7.60;99.90;;;;;;10467068;28;20241;-76
2023/03/30 07:27:56;;;;;;;21.57;14.63;;;7.60;99.90;;;;;;10472687;28;20207;-77
2023/03/30 07:33:18;;;;;;;23.60;14.83;;;7.70;99.90;;;;;;10412121;28;20251;-80
2023/03/30 07:38:40;;;;;;;19.47;13.03;;;7.80;99.90;;;;;;10445898;28;20213;-77
2023/03/30 07:44:02;;;;;;;18.30;12.97;;;8.20;99.90;;;;;;10477645;28;20271;-76
2023/03/30 07:49:25;;;;;;;24.40;15.57;;;8.70;99.90;;;;;;10412371;28;20268;-76
2023/03/30 07:54:47;;;;;;;24.20;13.23;;;9.40;99.80;;;;;;10417858;28;20211;-76
2023/03/30 08:00:13;;;;;;;20.10;14.80;;;9.90;98.70;;;;;;10435967;28;20363;-76
2023/03/30 08:06:03;;;;;;;19.67;13.70;;;10.20;96.60;;;;;;10417389;28;20255;-77
2023/03/30 08:11:28;;;;;;;17.67;13.30;;;10.30;97.00;;;;;;10410188;28;20498;-78
2023/03/30 08:16:50;;;;;;;25.67;14.90;;;10.10;97.30;;;;;;10445787;28;20741;-77
2023/03/30 08:22:21;;;;;;;29.70;19.27;;;9.80;98.70;;;;;;10471364;28;20233;-77
2023/03/30 08:27:42;;;;;;;31.87;16.83;;;10.00;98.70;;;;;;10429815;28;20221;-76
2023/03/30 08:33:04;;;;;;;21.27;14.10;;;10.30;97.90;;;;;;10451048;28;20222;-78
2023/03/30 08:38:25;;;;;;;21.00;14.43;;;10.90;95.50;;;;;;10460899;28;20258;-76
2023/03/30 08:43:57;;;;;;;25.97;14.50;;;11.60;90.50;;;;;;10472631;28;20249;-78
2023/03/30 08:49:19;;;;;;;23.23;14.10;;;12.00;83.00;;;;;;10473345;28;20372;-77
2023/03/30 08:54:41;;;;;;;23.42;13.50;;;12.50;75.30;;;;;;10463054;28;20205;-77
2023/03/30 09:00:34;;;;;;;28.00;13.18;;;13.80;52.40;;;;;;10471088;28;20218;-80
2023/03/30 09:06:05;;;;;;;17.45;10.68;;;15.10;33.70;;;;;;10390811;28;20600;-78
2023/03/30 09:11:32;;;;;;;20.52;12.32;;;15.40;30.40;;;;;;10475260;28;20236;-79
2023/03/30 09:17:13;;;;;;;16.67;11.57;;;15.80;28.30;;;;;;10436834;28;20259;-76
2023/03/30 09:22:38;;;;;;;17.55;12.15;;;16.20;27.10;;;;;;10446748;28;20272;-79
2023/03/30 09:27:59;;;;;;;18.92;14.40;;;16.60;24.10;;;;;;10438967;28;20379;-76
2023/03/30 09:33:39;;;;;;;18.17;11.63;;;17.10;21.60;;;;;;10407642;28;20210;-76
2023/03/30 09:39:00;;;;;;;15.35;10.73;;;17.30;20.50;;;;;;10448947;28;20284;-77
2023/03/30 09:44:59;;;;;;;26.75;17.10;;;17.90;19.50;;;;;;10473656;28;20364;-79
2023/03/30 09:50:23;;;;;;;19.77;10.10;;;;;;;;;;10495663;28;20282;-76
2023/03/30 09:56:10;;;;;;;20.58;11.25;;;19.10;36.00;;;;;;10449579;28;20258;-75
2023/03/30 10:01:36;;;;;;;26.42;11.45;;;19.60;13.90;;;;;;10459758;28;20533;-77
2023/03/30 10:06:58;;;;;;;26.38;12.98;;;19.00;13.80;;;;;;10455834;28;20519;-83
2023/03/30 10:12:24;;;;;;;20.65;12.98;;;18.70;14.20;;;;;;10451145;28;20219;-78
2023/03/30 10:17:50;;;;;;;14.60;9.15;;;18.40;15.30;;;;;;10443862;28;20235;-79
2023/03/30 10:23:21;;;;;;;11.48;8.70;;;17.80;15.80;;;;;;10413275;28;20496;-80
2023/03/30 10:28:54;;;;;;;20.42;10.02;;;17.40;17.70;;;;;;10413735;28;20207;-76
2023/03/30 10:34:37;;;;;;;12.73;9.40;;;16.30;19.90;;;;;;10410175;28;20498;-78
2023/03/30 10:40:00;;;;;;;12.30;9.43;;;15.40;24.60;;;;;;10424776;28;20552;-77
2023/03/30 10:45:35;;;;;;;13.55;10.35;;;14.80;31.70;;;;;;10412767;28;20244;-78
2023/03/30 10:51:33;;;;;;;14.88;11.52;;;14.30;49.20;;;;;;10389884;28;20207;-78
2023/03/30 10:56:59;;;;;;;18.75;11.85;;;13.90;65.00;;;;;;10437588;28;20207;-77
2023/03/30 11:02:59;;;;;;;20.77;13.85;;;13.70;78.30;;;;;;10429094;28;20230;-77
2023/03/30 11:08:39;;;;;;;17.33;12.63;;;13.60;82.60;;;;;;10407284;28;20239;-79
2023/03/30 11:14:12;;;;;;;24.67;17.67;;;13.80;79.50;;;;;;10399023;28;20215;-81
2023/03/30 11:19:48;;;;;;;44.72;22.70;;;13.90;79.50;;;;;;10427411;28;20199;-77
2023/03/30 11:25:23;;;;;;;17.60;10.40;;;13.90;83.30;;;;;;10438358;28;20231;-79
2023/03/30 11:30:44;;;;;;;15.47;10.50;;;13.50;89.30;;;;;;10411400;28;20213;-76
2023/03/30 11:36:22;;;;;;;14.10;10.03;;;13.20;92.60;;;;;;10439390;28;20226;-76
2023/03/30 11:42:11;;;;;;;14.87;9.93;;;13.10;94.70;;;;;;10437758;28;20246;-81
2023/03/30 11:47:47;;;;;;;15.40;10.47;;;12.70;97.90;;;;;;10433577;28;20224;-83
2023/03/30 11:53:50;;;;;;;24.37;15.23;;;12.60;98.20;;;;;;10404644;28;20199;-76
2023/03/30 11:59:25;;;;;;;16.07;11.00;;;12.40;98.70;;;;;;10395188;28;20197;-76
2023/03/30 12:04:54;;;;;;;14.03;10.20;;;12.40;99.90;;;;;;10423844;28;20246;-78
2023/03/30 12:10:23;;;;;;;16.27;10.77;;;12.30;99.90;;;;;;10434761;28;20196;-78
2023/03/30 12:15:58;;;;;;;16.20;9.83;;;12.30;1.00;;;;;;10435851;28;20216;-78
2023/03/30 12:21:42;;;;;;;16.53;10.43;;;12.10;58.80;;;;;;10431345;28;20208;-78
2023/03/30 12:27:03;;;;;;;17.83;10.57;;;11.90;15.50;;;;;;10420401;28;20229;-79
2023/03/30 12:32:28;;;;;;;15.80;11.07;;;12.10;1.00;;;;;;10412565;28;20277;-80
2023/03/30 12:37:51;;;;;;;13.23;9.40;;;12.30;1.00;;;;;;10403096;28;20225;-78
2023/03/30 12:43:39;;;;;;;13.43;8.33;;;12.10;1.00;;;;;;10394289;28;20310;-79
2023/03/30 12:49:14;;;;;;;17.07;10.40;;;12.10;1.00;;;;;;10408389;28;20199;-76
2023/03/30 12:54:50;;;;;;;13.87;10.50;;;12.10;50.10;;;;;;10429254;28;20210;-76
2023/03/30 13:00:35;;;;;;;17.77;9.70;;;11.90;99.90;;;;;;10418177;28;20199;-76
2023/03/30 13:05:59;;;;;;;15.03;10.60;;;11.70;99.90;;;;;;10399418;28;20235;-82
2023/03/30 13:11:21;;;;;;;16.03;10.00;;;11.80;12.00;;;;;;10429445;28;20229;-78
2023/03/30 13:16:52;;;;;;;11.57;9.70;;;11.80;30.30;;;;;;10417433;28;20476;-85
2023/03/30 13:22:14;;;;;;;15.60;9.97;;;11.70;99.90;;;;;;10378112;28;20219;-74
2023/03/30 13:27:40;;;;;;;17.70;12.13;;;11.70;1.00;;;;;;10448036;28;20225;-85
2023/03/30 13:33:14;;;;;;;17.40;11.87;;;11.60;1.00;;;;;;10431975;28;20576;-75
2023/03/30 13:39:12;;;;;;;14.13;10.73;;;11.60;66.90;;;;;;10415519;28;20444;-84
2023/03/30 13:44:45;;;;;;;17.03;10.27;;;11.60;77.50;;;;;;10389231;28;20248;-76
2023/03/30 13:50:12;;;;;;;16.60;11.50;;;11.60;1.00;;;;;;10390510;28;20310;-77
2023/03/30 13:55:44;;;;;;;18.80;12.77;;;11.30;99.90;;;;;;10395643;28;20205;-75
2023/03/30 14:01:08;;;;;;;20.43;13.40;;;11.20;99.90;;;;;;10421854;28;20206;-77
2023/03/30 14:06:35;;;;;;;47.70;24.43;;;11.20;99.90;;;;;;10409202;28;20462;-75
2023/03/30 14:12:01;;;;;;;28.90;17.17;;;11.20;99.90;;;;;;10405144;28;20282;-75
2023/03/30 14:17:24;;;;;;;26.47;18.87;;;11.00;99.90;;;;;;10398109;28;20207;-77
2023/03/30 14:22:47;;;;;;;23.53;17.87;;;10.90;99.90;;;;;;10425228;28;20234;-76
2023/03/30 14:28:13;;;;;;;36.73;23.87;;;10.70;99.90;;;;;;10416433;28;20247;-75
2023/03/30 14:33:39;;;;;;;26.30;19.97;;;10.50;99.90;;;;;;10407253;28;20556;-77
2023/03/30 14:39:00;;;;;;;26.73;18.57;;;10.40;99.90;;;;;;10423563;28;20233;-74
2023/03/30 14:44:23;;;;;;;34.80;19.67;;;10.40;99.90;;;;;;10412671;28;20341;-76
2023/03/30 14:49:46;;;;;;;28.40;19.57;;;10.50;99.90;;;;;;10418177;28;20256;-77
2023/03/30 14:55:20;;;;;;;28.23;20.50;;;10.50;99.90;;;;;;10424700;28;20255;-78
2023/03/30 15:00:42;;;;;;;35.53;23.50;;;10.30;99.90;;;;;;10425385;28;20206;-85
2023/03/30 15:06:05;;;;;;;33.60;23.10;;;10.60;99.90;;;;;;10392734;28;20223;-77
2023/03/30 15:11:28;;;;;;;38.97;24.47;;;;;;;;;;10417049;28;20434;-76
2023/03/30 15:16:52;;;;;;;36.07;23.80;;;10.50;99.90;;;;;;10438958;28;20198;-76
2023/03/30 15:22:27;;;;;;;36.93;23.30;;;10.60;99.90;;;;;;10442243;28;20197;-80
2023/03/30 15:27:57;;;;;;;35.03;21.87;;;;;;;;;;10427878;28;20281;-79
2023/03/30 15:33:28;;;;;;;32.57;20.30;;;10.50;99.90;;;;;;10399548;28;20433;-77
2023/03/30 15:39:00;;;;;;;59.43;33.90;;;10.50;99.90;;;;;;10398558;28;20287;-79
2023/03/30 15:44:22;;;;;;;34.20;21.67;;;10.50;99.90;;;;;;10403837;28;20611;-79
2023/03/30 15:49:47;;;;;;;36.30;22.73;;;10.60;99.90;;;;;;10441579;28;20189;-79
2023/03/30 15:55:25;;;;;;;33.20;22.17;;;10.50;99.90;;;;;;10452565;28;20211;-76
2023/03/30 16:00:46;;;;;;;31.23;18.97;;;10.40;99.90;;;;;;10430031;28;20198;-76
2023/03/30 16:06:12;;;;;;;30.93;21.17;;;10.30;99.90;;;;;;10428831;28;20228;-76
2023/03/30 16:11:33;;;;;;;43.67;27.97;;;;;;;;;;10420678;28;20410;-77
2023/03/30 16:16:55;;;;;;;37.63;27.00;;;;;;;;;;10415066;28;20257;-78
2023/03/30 16:22:19;;;;;;;33.17;22.77;;;;;;;;;;10410353;28;20263;-77
2023/03/30 16:27:41;;;;;;;38.67;27.07;;;;;;;;;;10429474;28;20326;-77
2023/03/30 16:33:03;;;;;;;37.00;25.77;;;;;;;;;;10409837;28;20429;-77
2023/03/30 16:38:27;;;;;;;42.70;26.50;;;;;;;;;;10441249;28;20190;-75
2023/03/30 16:43:49;;;;;;;38.10;25.27;;;;;;;;;;10454583;28;20262;-74
2023/03/30 16:49:14;;;;;;;42.03;28.00;;;;;;;;;;10439369;28;20227;-75
2023/03/30 16:54:35;;;;;;;38.17;25.60;;;;;;;;;;10425384;28;20208;-78
2023/03/30 16:59:57;;;;;;;24.33;18.27;;;10.20;99.90;;;;;;10419037;28;20195;-78
2023/03/30 17:05:19;;;;;;;18.20;14.23;;;10.10;99.90;;;;;;10442590;28;20221;-77
2023/03/30 17:10:40;;;;;;;23.67;17.70;;;10.10;99.90;;;;;;10440005;28;20189;-78
2023/03/30 17:16:01;;;;;;;35.23;24.50;;;10.10;99.90;;;;;;10435354;28;20202;-78
2023/03/30 17:21:22;;;;;;;34.50;24.40;;;10.00;99.90;;;;;;10439605;28;20190;-80
2023/03/30 17:26:43;;;;;;;34.37;23.13;;;10.00;99.90;;;;;;10415740;28;20252;-78
2023/03/30 17:32:10;;;;;;;47.87;27.30;;;10.00;99.90;;;;;;10426577;28;20483;-77
2023/03/30 17:37:32;;;;;;;41.73;24.80;;;9.90;99.90;;;;;;10435919;28;20216;-78
2023/03/30 17:42:53;;;;;;;38.97;24.10;;;9.90;99.90;;;;;;10398849;28;20238;-76
2023/03/30 17:48:18;;;;;;;55.37;35.80;;;9.90;99.90;;;;;;10396054;28;20508;-79
2023/03/30 17:53:39;;;;;;;70.07;37.00;;;9.90;99.90;;;;;;10416687;28;20210;-77
2023/03/30 17:59:00;;;;;;;63.07;34.73;;;9.90;99.90;;;;;;10406400;28;20221;-79
2023/03/30 18:04:21;;;;;;;67.90;37.57;;;9.90;99.90;;;;;;10396801;28;20222;-79
2023/03/30 18:09:42;;;;;;;56.80;37.00;;;9.90;99.90;;;;;;10404459;28;20219;-77
2023/03/30 18:15:04;;;;;;;54.33;34.10;;;9.90;99.90;;;;;;10416322;28;20214;-77
2023/03/30 18:20:32;;;;;;;53.00;33.63;;;9.90;99.90;;;;;;10437002;28;20198;-77
2023/03/30 18:25:53;;;;;;;53.60;35.70;;;9.90;99.90;;;;;;10436086;28;20215;-77
2023/03/30 18:31:14;;;;;;;64.20;38.17;;;9.80;99.90;;;;;;10402806;28;20392;-77
2023/03/30 18:36:36;;;;;;;73.73;44.00;;;9.90;99.90;;;;;;10398674;28;20226;-79
2023/03/30 18:41:57;;;;;;;73.87;42.67;;;9.80;99.90;;;;;;10393944;28;20272;-77
2023/03/30 18:47:18;;;;;;;85.00;41.87;;;9.90;99.90;;;;;;10395366;28;20224;-79
2023/03/30 18:52:39;;;;;;;123.40;66.57;;;9.90;99.90;;;;;;10401108;28;20198;-80
2023/03/30 18:58:23;;;;;;;103.30;57.17;;;9.90;99.90;;;;;;10435841;28;20214;-76
2023/03/30 19:03:44;;;;;;;65.90;39.10;;;9.90;99.90;;;;;;10436008;28;20218;-78
2023/03/30 19:09:05;;;;;;;68.07;40.10;;;9.90;99.90;;;;;;10405723;28;20245;-76
2023/03/30 19:14:26;;;;;;;72.73;38.40;;;9.90;99.90;;;;;;10410279;28;20189;-79
2023/03/30 19:19:47;;;;;;;63.53;34.10;;;9.90;99.90;;;;;;10417674;28;20195;-75
2023/03/30 19:25:10;;;;;;;39.37;24.60;;;9.90;99.90;;;;;;10394192;28;20225;-77
2023/03/30 19:30:35;;;;;;;25.93;19.07;;;9.90;99.90;;;;;;10397709;28;20187;-76
2023/03/30 19:35:58;;;;;;;26.63;19.37;;;9.90;99.90;;;;;;10399503;28;20489;-78
2023/03/30 19:41:19;;;;;;;24.27;17.10;;;9.90;99.90;;;;;;10412635;28;20269;-79
2023/03/30 19:46:41;;;;;;;23.10;16.73;;;9.90;99.90;;;;;;10413343;28;20223;-79
2023/03/30 19:52:02;;;;;;;27.17;18.67;;;9.90;99.90;;;;;;10394456;28;20208;-80
2023/03/30 19:57:23;;;;;;;25.53;18.80;;;9.90;99.90;;;;;;10421944;28;20491;-75
2023/03/30 20:02:50;;;;;;;27.70;18.50;;;9.90;99.90;;;;;;10442210;28;20193;-78
2023/03/30 20:08:11;;;;;;;26.83;18.93;;;9.90;99.90;;;;;;10427499;28;20549;-81
2023/03/30 20:13:37;;;;;;;27.30;18.73;;;9.90;99.90;;;;;;10409410;28;20258;-80
2023/03/30 20:18:59;;;;;;;26.07;17.23;;;9.90;99.90;;;;;;10429701;28;20208;-80
2023/03/30 20:24:20;;;;;;;23.97;17.57;;;9.80;99.90;;;;;;10399753;28;20244;-78
2023/03/30 20:29:41;;;;;;;24.77;17.57;;;9.90;99.90;;;;;;10400945;28;20191;-79
2023/03/30 20:35:04;;;;;;;27.13;18.80;;;9.90;99.90;;;;;;10402959;28;20232;-77
2023/03/30 20:40:26;;;;;;;24.57;17.40;;;9.90;99.90;;;;;;10400430;28;20190;-79
2023/03/30 20:45:47;;;;;;;22.87;17.90;;;9.90;99.90;;;;;;10399926;28;20243;-80
2023/03/30 20:51:11;;;;;;;29.40;20.80;;;9.90;99.90;;;;;;10403101;28;20224;-80
2023/03/30 20:56:32;;;;;;;57.03;30.43;;;9.90;99.90;;;;;;10406160;28;20280;-80
2023/03/30 21:01:55;;;;;;;63.70;32.80;;;9.90;99.90;;;;;;10400875;28;20265;-80
2023/03/30 21:07:17;;;;;;;48.50;29.73;;;9.80;99.90;;;;;;10398678;28;20488;-80
2023/03/30 21:12:37;;;;;;;47.53;30.90;;;9.80;99.90;;;;;;10398823;28;20185;-78
2023/03/30 21:17:59;;;;;;;44.73;29.73;;;9.80;99.90;;;;;;10398493;28;20406;-78
2023/03/30 21:23:25;;;;;;;42.17;27.67;;;9.70;99.90;;;;;;10424699;28;20202;-77
2023/03/30 21:28:46;;;;;;;51.17;28.63;;;9.70;99.90;;;;;;10438564;28;20207;-79
2023/03/30 21:34:09;;;;;;;37.70;24.93;;;9.70;99.90;;;;;;10439305;28;20217;-78
2023/03/30 21:39:31;;;;;;;27.87;21.20;;;9.70;99.90;;;;;;10418085;28;20205;-76
2023/03/30 21:44:51;;;;;;;31.40;21.43;;;9.70;99.90;;;;;;10399992;28;20235;-76
2023/03/30 21:50:12;;;;;;;25.70;19.37;;;9.70;99.90;;;;;;10407472;28;20194;-80
2023/03/30 21:55:34;;;;;;;21.13;16.83;;;9.70;99.90;;;;;;10402612;28;20508;-77
2023/03/30 22:00:55;;;;;;;24.83;16.30;;;9.60;99.90;;;;;;10437160;28;20201;-78
2023/03/30 22:06:24;;;;;;;20.27;14.97;;;9.60;99.90;;;;;;10434144;28;20557;-80
2023/03/30 22:11:46;;;;;;;20.90;14.03;;;9.60;99.90;;;;;;10396786;28;20253;-78
2023/03/30 22:17:10;;;;;;;19.37;14.10;;;9.70;99.90;;;;;;10420866;28;20209;-80
2023/03/30 22:22:30;;;;;;;21.83;14.30;;;9.60;99.90;;;;;;10421741;28;20204;-80
2023/03/30 22:27:53;;;;;;;16.47;12.17;;;9.60;99.90;;;;;;10396475;28;20218;-77
2023/03/30 22:33:16;;;;;;;16.30;11.13;;;9.60;99.90;;;;;;10395138;28;20277;-80
2023/03/30 22:38:36;;;;;;;15.40;11.13;;;9.70;99.90;;;;;;10398033;28;20264;-78
2023/03/30 22:43:58;;;;;;;15.40;9.77;;;9.60;99.90;;;;;;10398328;28;20242;-77
2023/03/30 22:49:19;;;;;;;17.00;10.00;;;9.70;99.90;;;;;;10434316;28;20201;-77
2023/03/30 22:54:40;;;;;;;11.90;7.77;;;9.60;99.90;;;;;;10402287;28;20228;-76
2023/03/30 23:00:08;;;;;;;10.00;7.23;;;9.60;99.90;;;;;;10395864;28;20217;-80
2023/03/30 23:05:32;;;;;;;11.67;8.13;;;9.60;99.90;;;;;;10395653;28;20228;-79
2023/03/30 23:10:55;;;;;;;15.57;7.30;;;9.60;99.90;;;;;;10395586;28;20231;-80
2023/03/30 23:16:16;;;;;;;9.93;6.20;;;9.60;99.90;;;;;;10418325;28;20256;-77
2023/03/30 23:21:37;;;;;;;14.10;6.87;;;9.60;99.90;;;;;;10430484;28;20231;-79
2023/03/30 23:26:58;;;;;;;12.47;6.60;;;9.60;99.90;;;;;;10397490;28;20351;-79
2023/03/30 23:32:19;;;;;;;9.97;6.53;;;9.50;99.90;;;;;;10402004;28;20243;-79
2023/03/30 23:37:40;;;;;;;8.83;5.40;;;9.50;99.90;;;;;;10405656;28;20209;-77
2023/03/30 23:43:27;;;;;;;8.90;6.07;;;9.50;99.90;;;;;;10402623;28;20543;-79
2023/03/30 23:48:48;;;;;;;9.90;5.87;;;9.50;99.90;;;;;;10387599;28;20266;-78
2023/03/30 23:54:10;;;;;;;10.50;5.87;;;9.50;99.90;;;;;;10405880;28;20495;-76
2023/03/30 23:59:35;;;;;;;8.70;5.40;;;9.40;99.90;;;;;;10439870;28;20204;-76
